Terminal Aerodrome Forecast
Issued by NWS

Home | Current Version | Previous Version | Text Only | Print | Product List | Glossary Off
Versions: 1 2 3 4 5 6 7 8 9 10 11 12 13 14 15 16 17 18 19 20

000
FTUS43 KGRB 242300
TAFAUW
TAF
KAUW 242322Z 2500/2524 31012G20KT 1SM -SN BR OVC012
      TEMPO 2500/2502 1/2SM SN OVC009
     FM250400 31011KT 3SM -SN OVC008
     FM250600 30008KT 6SM -SN OVC015
     FM251000 30007KT P6SM OVC020
     FM251500 28007KT P6SM BKN025 BKN100
     FM251900 27007KT P6SM FEW030 SCT100=

USA.gov is the U.S. government's official web portal to all federal, state and local government web resources and services.